Alabama Port, Alabama
Current Conditions -  °F | °C
As of 2:53 AM on Thursday 23 Oct 2014 (Local Time) from KBFM Reporting Station
Clear Clear  
Wind Chill: 53°   Ceiling: Unl
Heat Index: 53°   Visibility: 10mi
Dew Point: 48°   Wind: 6mph
Humidity: 83%   Direction: 300°WNW
Pressure: 30.09"   Gusts: NA
Location:  30.4032°N, 88.1801°W
Report Text: KBFM 230753Z AUTO 30005KT 10SM CLR 12/09 A3009 RMK AO2 SLP187 T01170089
Loading
Personal Weather Stations






























Interactive Weather Map
Tropical Storm Tracking
New forecast layout! Learn more

10-Day Weather Forecast

Advertisements
Track Severe Weather on mobile